Check Row, Illinois
Current Conditions -  °F | °C
As of 2:35 PM on Monday 22 Dec 2014 (Local Time) from KMQB Reporting Station
Haze Haze  
Wind Chill: 35°   Ceiling: 400
Heat Index: 40°   Visibility: 1.5mi
Dew Point: 40°   Wind: 9mph
Humidity: 100%   Direction: 140°SE
Pressure: 29.59"   Gusts: NA
Location:  40.6414°N, 90.4243°W
Report Text: KMQB 222035Z AUTO 14008KT 1 1/2SM BR OVC004 05/05 A2959 RMK AO2 T00470047
Loading
Personal Weather Stations






























Interactive Weather Map New forecast layout! Learn more

10-Day Weather Forecast

Advertisements
Track Severe Weather on mobile